Time,TemperatureF,DewpointF,PressureIn,WindDirection,WindDirectionDegrees,WindSpeedMPH,WindSpeedGustMPH,Humidity,HourlyPrecipIn,Conditions,Clouds,dailyrainin,SoftwareType,DateUTC
2013-08-01 00:00:00,66.2,61.0,29.98,SW,225,0.0,1.0,83,0.00,,,0.00,weatherlink.com 1.10,2013-08-01 04:00:00,
2013-08-01 00:15:00,66.4,61.0,29.98,SW,225,0.0,1.0,82,0.00,,,0.00,weatherlink.com 1.10,2013-08-01 04:15:00,
2013-08-01 00:30:00,65.7,60.0,29.98,SW,224,0.0,0.0,83,0.00,,,0.00,weatherlink.com 1.10,2013-08-01 04:30:00,
2013-08-01 00:45:00,65.2,60.0,29.98,SW,235,0.0,1.0,84,0.00,,,0.00,weatherlink.com 1.10,2013-08-01 04:45:00,
2013-08-01 01:00:00,64.9,60.0,29.98,SW,235,0.0,0.0,85,0.00,,,0.00,weatherlink.com 1.10,2013-08-01 05:00:00,
2013-08-01 01:15:00,64.8,60.0,29.98,SW,236,0.0,0.0,85,0.00,,,0.00,weatherlink.com 1.10,2013-08-01 05:15:00,
2013-08-01 01:30:00,65.1,61.0,29.97,SW,236,0.0,1.0,85,0.00,,,0.00,weatherlink.com 1.10,2013-08-01 05:30:00,
2013-08-01 01:45:00,65.4,61.0,29.97,WSW,238,0.0,1.0,84,0.00,,,0.00,weatherlink.com 1.10,2013-08-01 05:45:00,
2013-08-01 02:00:00,65.4,61.0,29.97,SW,221,0.0,2.0,84,0.00,,,0.00,weatherlink.com 1.10,2013-08-01 06:00:00,
2013-08-01 02:15:00,65.3,61.0,29.97,SW,224,0.0,1.0,85,0.00,,,0.00,weatherlink.com 1.10,2013-08-01 06:15:00,
2013-08-01 02:30:00,65.2,61.0,29.96,SW,223,0.0,2.0,85,0.00,,,0.00,weatherlink.com 1.10,2013-08-01 06:30:00,
2013-08-01 02:45:00,64.6,60.0,29.96,SW,221,0.0,0.0,86,0.00,,,0.00,weatherlink.com 1.10,2013-08-01 06:45:00,
2013-08-01 03:00:00,63.3,60.0,29.95,SW,222,0.0,0.0,88,0.00,,,0.00,weatherlink.com 1.10,2013-08-01 07:00:00,
2013-08-01 03:15:00,62.5,60.0,29.95,West,262,0.0,1.0,90,0.00,,,0.00,weatherlink.com 1.10,2013-08-01 07:15:00,
2013-08-01 03:30:00,62.1,60.0,29.95,West,262,0.0,0.0,91,0.00,,,0.00,weatherlink.com 1.10,2013-08-01 07:30:00,
2013-08-01 03:45:00,61.7,59.0,29.94,West,262,0.0,1.0,91,0.00,,,0.00,weatherlink.com 1.10,2013-08-01 07:45:00,
2013-08-01 04:00:00,61.4,59.0,29.93,West,263,0.0,0.0,92,0.00,,,0.00,weatherlink.com 1.10,2013-08-01 08:00:00,
2013-08-01 04:30:00,60.7,59.0,29.93,West,262,0.0,1.0,93,0.00,,,0.00,weatherlink.com 1.10,2013-08-01 08:30:00,
2013-08-01 04:45:00,59.9,58.0,29.93,West,261,0.0,1.0,94,0.00,,,0.00,weatherlink.com 1.10,2013-08-01 08:45:00,
2013-08-01 05:00:00,59.4,58.0,29.93,NW,315,0.0,1.0,95,0.00,,,0.00,weatherlink.com 1.10,2013-08-01 09:00:00,
2013-08-01 05:15:00,59.1,58.0,29.93,NW,315,0.0,1.0,95,0.00,,,0.00,weatherlink.com 1.10,2013-08-01 09:15:00,
2013-08-01 05:30:00,59.5,58.0,29.93,WNW,297,0.0,1.0,95,0.00,,,0.00,weatherlink.com 1.10,2013-08-01 09:30:00,
2013-08-01 05:45:00,59.1,58.0,29.93,NNE,28,0.0,2.0,95,0.00,,,0.00,weatherlink.com 1.10,2013-08-01 09:45:00,
2013-08-01 06:15:00,60.3,59.0,29.93,WSW,241,0.0,2.0,95,0.00,,,0.00,weatherlink.com 1.10,2013-08-01 10:15:00,
2013-08-01 06:30:00,62.5,60.0,29.93,WSW,241,0.0,1.0,91,0.00,,,0.00,weatherlink.com 1.10,2013-08-01 10:30:00,
2013-08-01 06:45:00,64.4,60.0,29.93,SW,227,0.0,3.0,85,0.00,,,0.00,weatherlink.com 1.10,2013-08-01 10:45:00,
2013-08-01 07:15:00,65.9,60.0,29.93,West,278,0.0,6.0,81,0.00,,,0.00,weatherlink.com 1.10,2013-08-01 11:15:00,
2013-08-01 08:01:00,69.4,62.0,29.92,SSW,210,3.0,5.0,76,0.00,,,0.00,weatherlink.com 1.10,2013-08-01 12:01:00,
2013-08-01 08:16:00,70.9,62.0,29.92,SW,221,0.0,5.0,73,0.00,,,0.00,weatherlink.com 1.10,2013-08-01 12:16:00,
2013-08-01 09:31:00,72.5,63.0,29.88,South,191,3.0,5.0,73,0.00,,,0.00,weatherlink.com 1.10,2013-08-01 13:31:00,
2013-08-01 09:46:00,73.0,63.0,29.88,SW,225,1.0,7.0,71,0.00,,,0.00,weatherlink.com 1.10,2013-08-01 13:46:00,
2013-08-01 11:01:00,77.5,66.0,29.85,SW,232,2.0,7.0,67,0.00,,,0.00,weatherlink.com 1.10,2013-08-01 15:01:00,
2013-08-01 11:16:00,77.8,66.0,29.84,SW,217,0.0,9.0,67,0.00,,,0.00,weatherlink.com 1.10,2013-08-01 15:16:00,
2013-08-01 11:31:00,78.2,67.0,29.83,SSW,211,3.0,6.0,68,0.00,,,0.00,weatherlink.com 1.10,2013-08-01 15:31:00,
2013-08-01 11:46:00,78.3,66.0,29.83,SW,224,2.0,11.0,66,0.00,,,0.00,weatherlink.com 1.10,2013-08-01 15:46:00,
2013-08-01 12:01:00,78.8,67.0,29.82,SSW,197,3.0,4.0,67,0.00,,,0.00,weatherlink.com 1.10,2013-08-01 16:01:00,
2013-08-01 12:31:00,79.2,67.0,29.81,SW,215,0.0,7.0,67,0.00,,,0.00,weatherlink.com 1.10,2013-08-01 16:31:00,
2013-08-01 12:47:00,79.2,67.0,29.80,SW,216,2.0,9.0,66,0.00,,,0.00,weatherlink.com 1.10,2013-08-01 16:47:00,
2013-08-01 13:47:00,77.9,66.0,29.78,WSW,242,1.0,10.0,67,0.00,,,0.00,weatherlink.com 1.10,2013-08-01 17:47:00,
2013-08-01 14:17:00,76.4,67.0,29.79,SSW,205,3.0,10.0,73,0.00,,,0.00,weatherlink.com 1.10,2013-08-01 18:17:00,
2013-08-01 14:47:00,71.7,67.0,29.80,SSW,196,7.0,13.0,84,0.03,,,0.03,weatherlink.com 1.10,2013-08-01 18:47:00,
2013-08-01 15:02:00,69.7,67.0,29.80,SW,218,0.0,6.0,91,0.09,,,0.09,weatherlink.com 1.10,2013-08-01 19:02:00,
2013-08-01 15:47:00,68.9,67.0,29.79,SW,223,2.0,15.0,94,0.12,,,0.15,weatherlink.com 1.10,2013-08-01 19:47:00,
2013-08-01 16:17:00,68.6,67.0,29.79,SW,236,5.0,11.0,93,0.07,,,0.18,weatherlink.com 1.10,2013-08-01 20:17:00,
2013-08-01 16:32:00,68.3,67.0,29.80,SW,229,2.0,10.0,94,0.08,,,0.20,weatherlink.com 1.10,2013-08-01 20:32:00,
2013-08-01 16:47:00,67.7,66.0,29.80,SSW,207,5.0,6.0,95,0.09,,,0.24,weatherlink.com 1.10,2013-08-01 20:47:00,
2013-08-01 17:17:00,67.1,66.0,29.80,SSW,210,0.0,5.0,95,0.08,,,0.26,weatherlink.com 1.10,2013-08-01 21:17:00,
2013-08-01 17:32:00,67.3,66.0,29.79,SW,222,0.0,8.0,95,0.06,,,0.26,weatherlink.com 1.10,2013-08-01 21:32:00,
2013-08-01 17:47:00,67.5,66.0,29.79,SW,218,2.0,8.0,95,0.02,,,0.26,weatherlink.com 1.10,2013-08-01 21:47:00,
2013-08-01 18:02:00,67.6,66.0,29.79,SW,226,1.0,8.0,95,0.01,,,0.26,weatherlink.com 1.10,2013-08-01 22:02:00,
2013-08-01 18:17:00,67.4,66.0,29.80,WSW,251,1.0,5.0,95,0.01,,,0.27,weatherlink.com 1.10,2013-08-01 22:17:00,
2013-08-01 18:32:00,67.3,66.0,29.79,SW,223,2.0,3.0,95,0.01,,,0.27,weatherlink.com 1.10,2013-08-01 22:32:00,
2013-08-01 18:47:00,67.2,66.0,29.79,SW,217,2.0,7.0,94,0.01,,,0.27,weatherlink.com 1.10,2013-08-01 22:47:00,
2013-08-01 19:02:00,67.3,66.0,29.79,SW,217,3.0,9.0,94,0.01,,,0.27,weatherlink.com 1.10,2013-08-01 23:02:00,
2013-08-01 19:17:00,67.5,66.0,29.79,SW,214,1.0,8.0,93,0.00,,,0.27,weatherlink.com 1.10,2013-08-01 23:17:00,
2013-08-01 19:32:00,67.7,65.0,29.78,SSW,199,1.0,11.0,92,0.00,,,0.27,weatherlink.com 1.10,2013-08-01 23:32:00,
2013-08-01 20:02:00,67.8,65.0,29.80,SSW,209,2.0,13.0,91,0.00,,,0.27,weatherlink.com 1.10,2013-08-02 00:02:00,
2013-08-01 20:17:00,67.7,65.0,29.79,SSW,200,4.0,13.0,92,0.00,,,0.27,weatherlink.com 1.10,2013-08-02 00:17:00,
2013-08-01 20:32:00,67.6,65.0,29.79,SSW,210,1.0,16.0,91,0.00,,,0.27,weatherlink.com 1.10,2013-08-02 00:32:00,
2013-08-01 21:02:00,67.3,65.0,29.80,SW,218,2.0,7.0,91,0.00,,,0.27,weatherlink.com 1.10,2013-08-02 01:02:00,
2013-08-01 21:17:00,67.2,65.0,29.80,SW,214,2.0,8.0,92,0.00,,,0.27,weatherlink.com 1.10,2013-08-02 01:17:00,
2013-08-01 21:32:00,67.3,64.0,29.80,SW,214,8.0,12.0,90,0.00,,,0.27,weatherlink.com 1.10,2013-08-02 01:32:00,
2013-08-01 21:47:00,66.9,64.0,29.80,SE,131,4.0,6.0,91,0.00,,,0.27,weatherlink.com 1.10,2013-08-02 01:47:00,
2013-08-01 22:17:00,66.9,64.0,29.80,SW,236,2.0,8.0,91,0.00,,,0.27,weatherlink.com 1.10,2013-08-02 02:17:00,
2013-08-01 22:32:00,67.0,64.0,29.80,SW,216,0.0,8.0,90,0.00,,,0.27,weatherlink.com 1.10,2013-08-02 02:32:00,
2013-08-01 22:47:00,67.0,64.0,29.80,ESE,115,4.0,10.0,91,0.00,,,0.27,weatherlink.com 1.10,2013-08-02 02:47:00,
2013-08-01 23:02:00,66.5,65.0,29.79,SW,216,0.0,5.0,93,0.00,,,0.27,weatherlink.com 1.10,2013-08-02 03:02:00,
2013-08-01 23:17:00,65.9,64.0,29.79,SSW,205,2.0,4.0,94,0.01,,,0.28,weatherlink.com 1.10,2013-08-02 03:17:00,
2013-08-01 23:32:00,65.7,64.0,29.79,SW,218,2.0,10.0,95,0.01,,,0.28,weatherlink.com 1.10,2013-08-02 03:32:00,
2013-08-01 23:47:00,65.6,64.0,29.79,SSW,209,0.0,4.0,95,0.01,,,0.28,weatherlink.com 1.10,2013-08-02 03:47:00,